sensor_id;sensor_type;location;lat;lon;timestamp;P1;durP1;ratioP1;P2;durP2;ratioP2
25637;SDS011;13496;51.040;13.680;2024-01-15T00:03:24;4.23;;;2.73;;
25637;SDS011;13496;51.040;13.680;2024-01-15T00:08:26;5.00;;;2.90;;
25637;SDS011;13496;51.040;13.680;2024-01-15T00:13:27;6.17;;;3.00;;
25637;SDS011;13496;51.040;13.680;2024-01-15T00:18:29;3.60;;;2.70;;
25637;SDS011;13496;51.040;13.680;2024-01-15T00:23:31;4.53;;;2.50;;
25637;SDS011;13496;51.040;13.680;2024-01-15T00:28:33;3.90;;;2.60;;
25637;SDS011;13496;51.040;13.680;2024-01-15T00:33:34;3.47;;;2.63;;
25637;SDS011;13496;51.040;13.680;2024-01-15T00:38:36;3.93;;;2.60;;
25637;SDS011;13496;51.040;13.680;2024-01-15T00:43:38;2.90;;;2.40;;
25637;SDS011;13496;51.040;13.680;2024-01-15T00:48:40;2.50;;;2.20;;
25637;SDS011;13496;51.040;13.680;2024-01-15T00:53:42;3.60;;;2.70;;
25637;SDS011;13496;51.040;13.680;2024-01-15T00:58:44;3.73;;;3.03;;
25637;SDS011;13496;51.040;13.680;2024-01-15T01:03:45;2.17;;;1.97;;
25637;SDS011;13496;51.040;13.680;2024-01-15T01:08:47;4.10;;;2.43;;
25637;SDS011;13496;51.040;13.680;2024-01-15T01:13:49;4.43;;;2.60;;
25637;SDS011;13496;51.040;13.680;2024-01-15T01:18:51;2.93;;;2.60;;
25637;SDS011;13496;51.040;13.680;2024-01-15T01:23:53;2.63;;;2.20;;
25637;SDS011;13496;51.040;13.680;2024-01-15T01:28:54;2.43;;;2.13;;
25637;SDS011;13496;51.040;13.680;2024-01-15T01:33:56;2.83;;;2.50;;
25637;SDS011;13496;51.040;13.680;2024-01-15T01:38:58;2.47;;;2.20;;
25637;SDS011;13496;51.040;13.680;2024-01-15T01:44:00;3.23;;;2.40;;
25637;SDS011;13496;51.040;13.680;2024-01-15T01:49:02;2.87;;;2.40;;
25637;SDS011;13496;51.040;13.680;2024-01-15T01:54:06;3.40;;;2.30;;
25637;SDS011;13496;51.040;13.680;2024-01-15T01:59:10;2.73;;;2.20;;
25637;SDS011;13496;51.040;13.680;2024-01-15T02:04:13;3.73;;;2.50;;
25637;SDS011;13496;51.040;13.680;2024-01-15T02:09:15;2.70;;;2.40;;
25637;SDS011;13496;51.040;13.680;2024-01-15T02:14:18;2.80;;;2.23;;
25637;SDS011;13496;51.040;13.680;2024-01-15T02:19:20;2.37;;;2.10;;
25637;SDS011;13496;51.040;13.680;2024-01-15T02:24:21;3.30;;;2.63;;
25637;SDS011;13496;51.040;13.680;2024-01-15T02:29:24;2.20;;;2.00;;
25637;SDS011;13496;51.040;13.680;2024-01-15T02:34:26;2.20;;;1.87;;
25637;SDS011;13496;51.040;13.680;2024-01-15T02:39:27;2.97;;;2.10;;
25637;SDS011;13496;51.040;13.680;2024-01-15T02:44:30;2.60;;;2.27;;
25637;SDS011;13496;51.040;13.680;2024-01-15T02:49:32;2.53;;;2.03;;
25637;SDS011;13496;51.040;13.680;2024-01-15T02:54:34;2.50;;;2.30;;
25637;SDS011;13496;51.040;13.680;2024-01-15T02:59:35;2.20;;;2.03;;
25637;SDS011;13496;51.040;13.680;2024-01-15T03:04:37;2.53;;;2.30;;
25637;SDS011;13496;51.040;13.680;2024-01-15T03:09:39;2.20;;;2.00;;
25637;SDS011;13496;51.040;13.680;2024-01-15T03:14:41;2.20;;;2.00;;
25637;SDS011;13496;51.040;13.680;2024-01-15T03:19:42;2.23;;;2.03;;
25637;SDS011;13496;51.040;13.680;2024-01-15T03:24:44;3.50;;;2.20;;
25637;SDS011;13496;51.040;13.680;2024-01-15T03:29:46;2.47;;;2.27;;
25637;SDS011;13496;51.040;13.680;2024-01-15T03:34:48;2.30;;;2.10;;
25637;SDS011;13496;51.040;13.680;2024-01-15T03:39:50;2.70;;;2.30;;
25637;SDS011;13496;51.040;13.680;2024-01-15T03:44:51;1.87;;;1.77;;
25637;SDS011;13496;51.040;13.680;2024-01-15T03:49:53;2.33;;;2.13;;
25637;SDS011;13496;51.040;13.680;2024-01-15T03:54:55;2.53;;;2.20;;
25637;SDS011;13496;51.040;13.680;2024-01-15T03:59:57;3.23;;;2.60;;
25637;SDS011;13496;51.040;13.680;2024-01-15T04:04:58;2.27;;;2.00;;
25637;SDS011;13496;51.040;13.680;2024-01-15T04:10:00;2.30;;;2.10;;
25637;SDS011;13496;51.040;13.680;2024-01-15T04:15:02;3.07;;;2.60;;
25637;SDS011;13496;51.040;13.680;2024-01-15T04:20:04;2.37;;;2.17;;
25637;SDS011;13496;51.040;13.680;2024-01-15T04:25:06;2.43;;;2.23;;
25637;SDS011;13496;51.040;13.680;2024-01-15T04:30:08;2.47;;;2.27;;
25637;SDS011;13496;51.040;13.680;2024-01-15T04:35:11;2.60;;;2.17;;
25637;SDS011;13496;51.040;13.680;2024-01-15T04:40:14;2.77;;;2.47;;
25637;SDS011;13496;51.040;13.680;2024-01-15T04:45:16;2.53;;;2.20;;
25637;SDS011;13496;51.040;13.680;2024-01-15T04:50:19;2.60;;;2.40;;
25637;SDS011;13496;51.040;13.680;2024-01-15T04:55:21;2.67;;;2.30;;
25637;SDS011;13496;51.040;13.680;2024-01-15T05:00:23;2.60;;;2.40;;
25637;SDS011;13496;51.040;13.680;2024-01-15T05:05:25;3.20;;;2.90;;
25637;SDS011;13496;51.040;13.680;2024-01-15T05:10:27;2.30;;;2.10;;
25637;SDS011;13496;51.040;13.680;2024-01-15T05:15:29;2.87;;;2.40;;
25637;SDS011;13496;51.040;13.680;2024-01-15T05:20:31;2.83;;;1.80;;
25637;SDS011;13496;51.040;13.680;2024-01-15T05:25:32;3.23;;;2.77;;
25637;SDS011;13496;51.040;13.680;2024-01-15T05:30:34;3.40;;;2.60;;
25637;SDS011;13496;51.040;13.680;2024-01-15T05:35:36;2.97;;;2.50;;
25637;SDS011;13496;51.040;13.680;2024-01-15T05:40:38;3.40;;;2.43;;
25637;SDS011;13496;51.040;13.680;2024-01-15T05:45:42;4.03;;;3.00;;
25637;SDS011;13496;51.040;13.680;2024-01-15T05:50:44;4.27;;;2.70;;
25637;SDS011;13496;51.040;13.680;2024-01-15T05:55:46;4.33;;;2.67;;
25637;SDS011;13496;51.040;13.680;2024-01-15T06:00:48;4.87;;;3.03;;
25637;SDS011;13496;51.040;13.680;2024-01-15T06:05:51;2.87;;;2.60;;
25637;SDS011;13496;51.040;13.680;2024-01-15T06:10:53;3.10;;;2.50;;
25637;SDS011;13496;51.040;13.680;2024-01-15T06:15:55;3.67;;;2.80;;
25637;SDS011;13496;51.040;13.680;2024-01-15T06:20:57;2.77;;;2.57;;
25637;SDS011;13496;51.040;13.680;2024-01-15T06:25:59;2.63;;;2.43;;
25637;SDS011;13496;51.040;13.680;2024-01-15T06:31:01;3.80;;;2.47;;
25637;SDS011;13496;51.040;13.680;2024-01-15T06:36:02;2.70;;;2.37;;
25637;SDS011;13496;51.040;13.680;2024-01-15T06:41:04;3.37;;;2.77;;
25637;SDS011;13496;51.040;13.680;2024-01-15T06:46:06;4.73;;;2.77;;
25637;SDS011;13496;51.040;13.680;2024-01-15T06:51:08;3.23;;;2.47;;
25637;SDS011;13496;51.040;13.680;2024-01-15T06:56:10;3.30;;;2.87;;
25637;SDS011;13496;51.040;13.680;2024-01-15T07:01:11;2.50;;;2.30;;
25637;SDS011;13496;51.040;13.680;2024-01-15T07:06:13;3.33;;;2.50;;
25637;SDS011;13496;51.040;13.680;2024-01-15T07:11:15;3.60;;;2.30;;
25637;SDS011;13496;51.040;13.680;2024-01-15T07:16:17;3.43;;;2.50;;
25637;SDS011;13496;51.040;13.680;2024-01-15T07:21:19;3.90;;;2.77;;
25637;SDS011;13496;51.040;13.680;2024-01-15T07:26:21;3.43;;;2.57;;
25637;SDS011;13496;51.040;13.680;2024-01-15T07:31:22;3.27;;;2.43;;
25637;SDS011;13496;51.040;13.680;2024-01-15T07:36:24;3.10;;;2.43;;
25637;SDS011;13496;51.040;13.680;2024-01-15T07:41:26;3.37;;;2.70;;
25637;SDS011;13496;51.040;13.680;2024-01-15T07:46:28;3.43;;;2.70;;
25637;SDS011;13496;51.040;13.680;2024-01-15T07:51:30;2.77;;;2.30;;
25637;SDS011;13496;51.040;13.680;2024-01-15T07:56:32;4.00;;;2.43;;
25637;SDS011;13496;51.040;13.680;2024-01-15T08:01:33;3.47;;;2.67;;
25637;SDS011;13496;51.040;13.680;2024-01-15T08:06:35;2.40;;;2.20;;
25637;SDS011;13496;51.040;13.680;2024-01-15T08:11:39;2.93;;;2.27;;
25637;SDS011;13496;51.040;13.680;2024-01-15T08:16:42;2.60;;;2.27;;
25637;SDS011;13496;51.040;13.680;2024-01-15T08:21:45;3.07;;;2.23;;
25637;SDS011;13496;51.040;13.680;2024-01-15T08:26:47;2.50;;;2.30;;
25637;SDS011;13496;51.040;13.680;2024-01-15T08:31:49;2.10;;;1.90;;
25637;SDS011;13496;51.040;13.680;2024-01-15T08:36:50;2.87;;;2.57;;
25637;SDS011;13496;51.040;13.680;2024-01-15T08:41:52;3.40;;;2.30;;
25637;SDS011;13496;51.040;13.680;2024-01-15T08:46:54;3.33;;;2.53;;
25637;SDS011;13496;51.040;13.680;2024-01-15T08:51:56;2.30;;;2.10;;
25637;SDS011;13496;51.040;13.680;2024-01-15T08:56:57;2.60;;;2.40;;
25637;SDS011;13496;51.040;13.680;2024-01-15T09:01:59;2.40;;;2.20;;
25637;SDS011;13496;51.040;13.680;2024-01-15T09:07:01;2.77;;;2.40;;
25637;SDS011;13496;51.040;13.680;2024-01-15T09:12:03;2.67;;;2.47;;
25637;SDS011;13496;51.040;13.680;2024-01-15T09:17:05;2.40;;;2.20;;
25637;SDS011;13496;51.040;13.680;2024-01-15T09:22:07;2.63;;;2.43;;
25637;SDS011;13496;51.040;13.680;2024-01-15T09:27:09;2.40;;;2.20;;
25637;SDS011;13496;51.040;13.680;2024-01-15T09:32:11;3.20;;;2.20;;
25637;SDS011;13496;51.040;13.680;2024-01-15T09:37:17;2.63;;;2.07;;
25637;SDS011;13496;51.040;13.680;2024-01-15T09:42:19;4.70;;;2.03;;
25637;SDS011;13496;51.040;13.680;2024-01-15T09:47:21;2.20;;;2.00;;
25637;SDS011;13496;51.040;13.680;2024-01-15T09:52:23;4.33;;;2.33;;
25637;SDS011;13496;51.040;13.680;2024-01-15T09:57:26;2.30;;;2.10;;
25637;SDS011;13496;51.040;13.680;2024-01-15T10:02:28;2.37;;;2.00;;
25637;SDS011;13496;51.040;13.680;2024-01-15T10:07:30;2.20;;;2.00;;
25637;SDS011;13496;51.040;13.680;2024-01-15T10:12:37;2.23;;;1.97;;
25637;SDS011;13496;51.040;13.680;2024-01-15T10:17:40;4.10;;;2.60;;
25637;SDS011;13496;51.040;13.680;2024-01-15T10:22:43;2.23;;;2.03;;
25637;SDS011;13496;51.040;13.680;2024-01-15T10:27:51;2.40;;;2.20;;
25637;SDS011;13496;51.040;13.680;2024-01-15T10:33:02;2.00;;;1.87;;
25637;SDS011;13496;51.040;13.680;2024-01-15T10:38:05;2.17;;;1.87;;
25637;SDS011;13496;51.040;13.680;2024-01-15T10:43:07;1.73;;;1.63;;
25637;SDS011;13496;51.040;13.680;2024-01-15T10:48:09;2.40;;;2.20;;
25637;SDS011;13496;51.040;13.680;2024-01-15T10:53:14;2.20;;;1.97;;
25637;SDS011;13496;51.040;13.680;2024-01-15T10:58:17;2.30;;;2.10;;
25637;SDS011;13496;51.040;13.680;2024-01-15T11:03:20;2.80;;;2.20;;
25637;SDS011;13496;51.040;13.680;2024-01-15T11:08:22;2.33;;;2.13;;
25637;SDS011;13496;51.040;13.680;2024-01-15T11:18:37;2.40;;;2.20;;
25637;SDS011;13496;51.040;13.680;2024-01-15T11:23:42;2.27;;;1.83;;
25637;SDS011;13496;51.040;13.680;2024-01-15T11:28:50;2.10;;;1.90;;
25637;SDS011;13496;51.040;13.680;2024-01-15T11:33:51;1.80;;;1.60;;
25637;SDS011;13496;51.040;13.680;2024-01-15T11:38:53;2.10;;;1.90;;
25637;SDS011;13496;51.040;13.680;2024-01-15T11:43:55;1.77;;;1.60;;
25637;SDS011;13496;51.040;13.680;2024-01-15T11:48:58;1.87;;;1.77;;
25637;SDS011;13496;51.040;13.680;2024-01-15T11:54:05;2.10;;;1.90;;
25637;SDS011;13496;51.040;13.680;2024-01-15T11:59:11;2.03;;;1.73;;
25637;SDS011;13496;51.040;13.680;2024-01-15T12:04:13;1.90;;;1.70;;
25637;SDS011;13496;51.040;13.680;2024-01-15T12:09:19;1.70;;;1.60;;
25637;SDS011;13496;51.040;13.680;2024-01-15T12:14:21;2.07;;;1.90;;
25637;SDS011;13496;51.040;13.680;2024-01-15T12:19:23;2.10;;;1.90;;
25637;SDS011;13496;51.040;13.680;2024-01-15T12:24:25;1.60;;;1.50;;
25637;SDS011;13496;51.040;13.680;2024-01-15T12:29:27;1.90;;;1.80;;
25637;SDS011;13496;51.040;13.680;2024-01-15T12:34:29;1.70;;;1.60;;
25637;SDS011;13496;51.040;13.680;2024-01-15T12:39:33;1.90;;;1.80;;
25637;SDS011;13496;51.040;13.680;2024-01-15T12:44:36;1.73;;;1.63;;
25637;SDS011;13496;51.040;13.680;2024-01-15T12:49:41;2.40;;;1.73;;
25637;SDS011;13496;51.040;13.680;2024-01-15T12:54:43;2.13;;;1.93;;
25637;SDS011;13496;51.040;13.680;2024-01-15T12:59:44;2.07;;;1.87;;
25637;SDS011;13496;51.040;13.680;2024-01-15T13:04:46;2.00;;;1.90;;
25637;SDS011;13496;51.040;13.680;2024-01-15T13:09:48;2.00;;;1.80;;
25637;SDS011;13496;51.040;13.680;2024-01-15T13:14:55;2.00;;;1.80;;
25637;SDS011;13496;51.040;13.680;2024-01-15T13:19:57;2.20;;;1.73;;
25637;SDS011;13496;51.040;13.680;2024-01-15T13:24:59;1.90;;;1.73;;
25637;SDS011;13496;51.040;13.680;2024-01-15T13:30:01;2.03;;;1.70;;
25637;SDS011;13496;51.040;13.680;2024-01-15T13:35:05;1.80;;;1.70;;
25637;SDS011;13496;51.040;13.680;2024-01-15T13:40:11;1.87;;;1.70;;
25637;SDS011;13496;51.040;13.680;2024-01-15T13:45:17;2.13;;;1.60;;
25637;SDS011;13496;51.040;13.680;2024-01-15T13:50:19;1.57;;;1.47;;
25637;SDS011;13496;51.040;13.680;2024-01-15T13:55:22;2.53;;;2.13;;
25637;SDS011;13496;51.040;13.680;2024-01-15T14:00:24;2.03;;;1.83;;
25637;SDS011;13496;51.040;13.680;2024-01-15T14:05:25;1.60;;;1.50;;
25637;SDS011;13496;51.040;13.680;2024-01-15T14:10:29;1.70;;;1.60;;
25637;SDS011;13496;51.040;13.680;2024-01-15T14:15:30;2.13;;;1.87;;
25637;SDS011;13496;51.040;13.680;2024-01-15T14:20:32;1.90;;;1.80;;
25637;SDS011;13496;51.040;13.680;2024-01-15T14:25:34;1.77;;;1.60;;
25637;SDS011;13496;51.040;13.680;2024-01-15T14:30:36;1.70;;;1.60;;
25637;SDS011;13496;51.040;13.680;2024-01-15T14:35:38;1.70;;;1.60;;
25637;SDS011;13496;51.040;13.680;2024-01-15T14:40:40;1.67;;;1.57;;
25637;SDS011;13496;51.040;13.680;2024-01-15T14:45:42;1.70;;;1.60;;
25637;SDS011;13496;51.040;13.680;2024-01-15T14:50:45;2.17;;;1.80;;
25637;SDS011;13496;51.040;13.680;2024-01-15T14:55:47;1.77;;;1.63;;
25637;SDS011;13496;51.040;13.680;2024-01-15T15:00:49;1.97;;;1.77;;
25637;SDS011;13496;51.040;13.680;2024-01-15T15:05:51;2.83;;;1.80;;
25637;SDS011;13496;51.040;13.680;2024-01-15T15:10:53;2.70;;;1.87;;
25637;SDS011;13496;51.040;13.680;2024-01-15T15:15:54;1.90;;;1.63;;
25637;SDS011;13496;51.040;13.680;2024-01-15T15:20:56;2.00;;;1.70;;
25637;SDS011;13496;51.040;13.680;2024-01-15T15:25:58;2.40;;;1.67;;
25637;SDS011;13496;51.040;13.680;2024-01-15T15:31:00;1.57;;;1.43;;
25637;SDS011;13496;51.040;13.680;2024-01-15T15:36:02;2.47;;;1.80;;
25637;SDS011;13496;51.040;13.680;2024-01-15T15:41:08;1.93;;;1.83;;
25637;SDS011;13496;51.040;13.680;2024-01-15T15:46:10;2.47;;;1.80;;
25637;SDS011;13496;51.040;13.680;2024-01-15T15:51:11;1.90;;;1.67;;
25637;SDS011;13496;51.040;13.680;2024-01-15T15:56:13;1.77;;;1.67;;
25637;SDS011;13496;51.040;13.680;2024-01-15T16:01:15;2.07;;;1.67;;
25637;SDS011;13496;51.040;13.680;2024-01-15T16:06:17;1.80;;;1.70;;
25637;SDS011;13496;51.040;13.680;2024-01-15T16:11:19;2.00;;;1.90;;
25637;SDS011;13496;51.040;13.680;2024-01-15T16:16:21;2.47;;;1.87;;
25637;SDS011;13496;51.040;13.680;2024-01-15T16:21:23;2.87;;;1.80;;
25637;SDS011;13496;51.040;13.680;2024-01-15T16:26:25;2.40;;;2.20;;
25637;SDS011;13496;51.040;13.680;2024-01-15T16:31:28;2.30;;;2.10;;
25637;SDS011;13496;51.040;13.680;2024-01-15T16:36:29;2.23;;;2.03;;
25637;SDS011;13496;51.040;13.680;2024-01-15T16:41:31;2.80;;;2.47;;
25637;SDS011;13496;51.040;13.680;2024-01-15T16:46:33;2.47;;;2.27;;
25637;SDS011;13496;51.040;13.680;2024-01-15T16:51:35;2.97;;;1.80;;
25637;SDS011;13496;51.040;13.680;2024-01-15T16:56:37;2.60;;;2.40;;
25637;SDS011;13496;51.040;13.680;2024-01-15T17:01:39;5.00;;;2.47;;
25637;SDS011;13496;51.040;13.680;2024-01-15T17:06:40;8.50;;;2.93;;
25637;SDS011;13496;51.040;13.680;2024-01-15T17:11:42;31.17;;;5.57;;
25637;SDS011;13496;51.040;13.680;2024-01-15T17:16:44;25.83;;;5.07;;
25637;SDS011;13496;51.040;13.680;2024-01-15T17:21:47;13.40;;;5.17;;
25637;SDS011;13496;51.040;13.680;2024-01-15T17:26:49;18.43;;;6.40;;
25637;SDS011;13496;51.040;13.680;2024-01-15T17:31:51;75.93;;;11.47;;
25637;SDS011;13496;51.040;13.680;2024-01-15T17:36:53;109.87;;;13.87;;
25637;SDS011;13496;51.040;13.680;2024-01-15T17:41:55;74.37;;;12.67;;
25637;SDS011;13496;51.040;13.680;2024-01-15T17:46:57;81.23;;;14.57;;
25637;SDS011;13496;51.040;13.680;2024-01-15T17:51:58;283.77;;;42.40;;
25637;SDS011;13496;51.040;13.680;2024-01-15T17:57:00;173.30;;;28.30;;
25637;SDS011;13496;51.040;13.680;2024-01-15T18:02:02;160.67;;;22.37;;
25637;SDS011;13496;51.040;13.680;2024-01-15T18:07:04;101.37;;;18.10;;
25637;SDS011;13496;51.040;13.680;2024-01-15T18:12:06;115.10;;;17.67;;
25637;SDS011;13496;51.040;13.680;2024-01-15T18:17:08;83.60;;;14.80;;
25637;SDS011;13496;51.040;13.680;2024-01-15T18:22:10;76.00;;;14.57;;
25637;SDS011;13496;51.040;13.680;2024-01-15T18:27:12;59.20;;;11.17;;
25637;SDS011;13496;51.040;13.680;2024-01-15T18:32:14;57.97;;;11.73;;
25637;SDS011;13496;51.040;13.680;2024-01-15T18:37:16;45.60;;;11.33;;
25637;SDS011;13496;51.040;13.680;2024-01-15T18:42:17;55.67;;;11.13;;
25637;SDS011;13496;51.040;13.680;2024-01-15T18:47:19;47.87;;;10.63;;
25637;SDS011;13496;51.040;13.680;2024-01-15T18:52:22;42.17;;;10.30;;
25637;SDS011;13496;51.040;13.680;2024-01-15T18:57:23;41.43;;;9.17;;
25637;SDS011;13496;51.040;13.680;2024-01-15T19:02:26;24.93;;;7.27;;
25637;SDS011;13496;51.040;13.680;2024-01-15T19:07:27;30.97;;;8.27;;
25637;SDS011;13496;51.040;13.680;2024-01-15T19:12:30;23.77;;;7.77;;
25637;SDS011;13496;51.040;13.680;2024-01-15T19:17:32;25.67;;;7.43;;
25637;SDS011;13496;51.040;13.680;2024-01-15T19:22:33;21.40;;;7.10;;
25637;SDS011;13496;51.040;13.680;2024-01-15T19:27:35;25.00;;;7.27;;
25637;SDS011;13496;51.040;13.680;2024-01-15T19:32:40;23.63;;;6.87;;
25637;SDS011;13496;51.040;13.680;2024-01-15T19:37:45;34.20;;;7.47;;
25637;SDS011;13496;51.040;13.680;2024-01-15T19:42:46;128.90;;;17.07;;
25637;SDS011;13496;51.040;13.680;2024-01-15T19:47:48;140.27;;;18.90;;
25637;SDS011;13496;51.040;13.680;2024-01-15T19:52:50;211.50;;;24.70;;
25637;SDS011;13496;51.040;13.680;2024-01-15T19:57:52;192.47;;;23.07;;
25637;SDS011;13496;51.040;13.680;2024-01-15T20:02:53;288.30;;;28.67;;
25637;SDS011;13496;51.040;13.680;2024-01-15T20:07:55;274.60;;;29.97;;
25637;SDS011;13496;51.040;13.680;2024-01-15T20:12:57;261.20;;;30.70;;
25637;SDS011;13496;51.040;13.680;2024-01-15T20:17:59;164.67;;;23.37;;
25637;SDS011;13496;51.040;13.680;2024-01-15T20:23:01;195.83;;;24.13;;
25637;SDS011;13496;51.040;13.680;2024-01-15T20:28:03;146.73;;;20.63;;
25637;SDS011;13496;51.040;13.680;2024-01-15T20:33:07;136.47;;;18.97;;
25637;SDS011;13496;51.040;13.680;2024-01-15T20:38:09;121.63;;;17.93;;
25637;SDS011;13496;51.040;13.680;2024-01-15T20:43:11;93.40;;;16.63;;
25637;SDS011;13496;51.040;13.680;2024-01-15T20:48:13;102.63;;;15.83;;
25637;SDS011;13496;51.040;13.680;2024-01-15T20:53:15;68.60;;;12.17;;
25637;SDS011;13496;51.040;13.680;2024-01-15T20:58:20;77.97;;;14.17;;
25637;SDS011;13496;51.040;13.680;2024-01-15T21:03:25;82.93;;;14.37;;
25637;SDS011;13496;51.040;13.680;2024-01-15T21:08:27;74.80;;;12.33;;
25637;SDS011;13496;51.040;13.680;2024-01-15T21:13:30;55.27;;;12.00;;
25637;SDS011;13496;51.040;13.680;2024-01-15T21:18:32;55.70;;;10.30;;
25637;SDS011;13496;51.040;13.680;2024-01-15T21:23:34;47.40;;;9.10;;
25637;SDS011;13496;51.040;13.680;2024-01-15T21:28:36;34.10;;;8.80;;
25637;SDS011;13496;51.040;13.680;2024-01-15T21:33:38;29.97;;;7.37;;
25637;SDS011;13496;51.040;13.680;2024-01-15T21:38:43;27.77;;;6.63;;
25637;SDS011;13496;51.040;13.680;2024-01-15T21:43:45;36.80;;;7.93;;
25637;SDS011;13496;51.040;13.680;2024-01-15T21:48:47;24.00;;;6.57;;
25637;SDS011;13496;51.040;13.680;2024-01-15T21:53:49;29.37;;;6.67;;
25637;SDS011;13496;51.040;13.680;2024-01-15T21:58:50;27.93;;;6.77;;
25637;SDS011;13496;51.040;13.680;2024-01-15T22:03:52;21.90;;;6.30;;
25637;SDS011;13496;51.040;13.680;2024-01-15T22:08:54;22.13;;;5.67;;
25637;SDS011;13496;51.040;13.680;2024-01-15T22:13:57;14.07;;;4.33;;
25637;SDS011;13496;51.040;13.680;2024-01-15T22:18:59;17.50;;;4.50;;
25637;SDS011;13496;51.040;13.680;2024-01-15T22:24:01;21.47;;;5.07;;
25637;SDS011;13496;51.040;13.680;2024-01-15T22:29:02;14.20;;;4.23;;
25637;SDS011;13496;51.040;13.680;2024-01-15T22:34:04;15.43;;;4.30;;
25637;SDS011;13496;51.040;13.680;2024-01-15T22:39:06;13.03;;;4.53;;
25637;SDS011;13496;51.040;13.680;2024-01-15T22:44:08;12.40;;;4.47;;
25637;SDS011;13496;51.040;13.680;2024-01-15T22:49:10;11.90;;;4.00;;
25637;SDS011;13496;51.040;13.680;2024-01-15T22:54:11;9.40;;;3.77;;
25637;SDS011;13496;51.040;13.680;2024-01-15T22:59:13;10.73;;;3.80;;
25637;SDS011;13496;51.040;13.680;2024-01-15T23:04:20;9.57;;;3.20;;
25637;SDS011;13496;51.040;13.680;2024-01-15T23:09:23;8.97;;;3.60;;
25637;SDS011;13496;51.040;13.680;2024-01-15T23:14:26;11.83;;;3.60;;
25637;SDS011;13496;51.040;13.680;2024-01-15T23:19:27;6.73;;;3.17;;
25637;SDS011;13496;51.040;13.680;2024-01-15T23:24:29;8.47;;;2.87;;
25637;SDS011;13496;51.040;13.680;2024-01-15T23:29:31;6.30;;;2.27;;
25637;SDS011;13496;51.040;13.680;2024-01-15T23:34:36;4.73;;;2.13;;
25637;SDS011;13496;51.040;13.680;2024-01-15T23:39:38;6.90;;;2.57;;
25637;SDS011;13496;51.040;13.680;2024-01-15T23:44:40;8.63;;;2.43;;
25637;SDS011;13496;51.040;13.680;2024-01-15T23:49:42;7.70;;;2.77;;
25637;SDS011;13496;51.040;13.680;2024-01-15T23:54:44;5.17;;;2.10;;
25637;SDS011;13496;51.040;13.680;2024-01-15T23:59:46;4.13;;;2.30;;
